createdAt,value
2018-03-16T02:38:08.272Z,21.60
2018-03-16T02:40:35.769Z,17.45
2018-03-16T02:43:03.198Z,19.30
2018-03-16T02:45:30.638Z,19.67
2018-03-16T02:47:58.160Z,18.90
2018-03-16T02:50:25.585Z,19.33
2018-03-16T02:52:53.020Z,19.90
2018-03-16T02:55:20.472Z,21.57
2018-03-16T02:57:47.924Z,21.15
2018-03-16T03:00:15.412Z,23.20
2018-03-16T03:02:42.866Z,23.38
2018-03-16T03:05:10.352Z,23.97
2018-03-16T03:07:37.784Z,24.20
2018-03-16T03:10:06.083Z,24.53
2018-03-16T03:12:33.518Z,23.90
2018-03-16T03:15:01.787Z,25.70
2018-03-16T03:17:29.231Z,25.20
2018-03-16T03:19:56.693Z,25.03
2018-03-16T03:22:24.571Z,24.60
2018-03-16T03:24:52.022Z,26.23
2018-03-16T03:27:19.450Z,25.30
2018-03-16T03:29:46.882Z,27.43
2018-03-16T03:32:14.329Z,27.03
2018-03-16T03:34:41.761Z,25.10
2018-03-16T03:37:09.199Z,24.75
2018-03-16T03:39:36.649Z,26.63
2018-03-16T03:42:04.076Z,25.23
2018-03-16T03:44:31.522Z,25.70
2018-03-16T03:46:58.969Z,25.73
2018-03-16T03:49:26.460Z,26.50
2018-03-16T03:51:53.869Z,24.83
2018-03-16T03:54:21.341Z,25.37
2018-03-16T03:56:48.796Z,23.70
2018-03-16T03:59:16.250Z,25.20
2018-03-16T04:01:43.714Z,27.60
2018-03-16T04:04:11.153Z,26.07
2018-03-16T04:06:38.593Z,26.33
2018-03-16T04:09:06.077Z,25.40
2018-03-16T04:11:33.522Z,23.33
2018-03-16T04:14:00.958Z,23.05
2018-03-16T04:16:29.083Z,24.02
2018-03-16T04:18:56.523Z,23.60
2018-03-16T04:21:23.952Z,25.83
2018-03-16T04:23:51.410Z,24.00
2018-03-16T04:26:18.930Z,23.33
2018-03-16T04:28:46.357Z,22.23
2018-03-16T04:31:13.810Z,22.70
2018-03-16T04:33:41.268Z,22.93
2018-03-16T04:36:08.736Z,24.30
2018-03-16T04:38:36.176Z,25.42
2018-03-16T04:41:03.622Z,25.35
2018-03-16T04:43:31.076Z,24.67
2018-03-16T04:45:58.522Z,26.90
2018-03-16T04:48:25.963Z,27.77
2018-03-16T04:50:53.414Z,28.00
2018-03-16T04:53:20.859Z,27.52
2018-03-16T04:55:48.292Z,29.13
2018-03-16T04:58:15.731Z,30.33
2018-03-16T05:00:43.187Z,28.00
2018-03-16T05:03:10.703Z,28.08
2018-03-16T05:05:38.135Z,38.63
2018-03-16T05:08:05.598Z,40.50
2018-03-16T05:10:33.038Z,29.97
2018-03-16T05:13:00.488Z,28.70
2018-03-16T05:15:27.943Z,27.37
2018-03-16T05:17:55.374Z,28.40
2018-03-16T05:20:22.857Z,29.93
2018-03-16T05:22:50.327Z,30.30
2018-03-16T05:25:17.762Z,31.93
2018-03-16T05:27:45.194Z,32.47
2018-03-16T05:30:12.663Z,31.08
2018-03-16T05:32:40.094Z,31.80
2018-03-16T05:35:07.534Z,32.28
2018-03-16T05:37:34.985Z,33.70
2018-03-16T05:40:02.514Z,33.37
2018-03-16T05:42:29.976Z,29.83
2018-03-16T05:44:57.431Z,32.10
2018-03-16T05:47:24.886Z,33.00
2018-03-16T05:49:52.352Z,33.23
2018-03-16T05:52:19.808Z,32.93
2018-03-16T05:54:47.238Z,34.25
2018-03-16T05:57:14.709Z,31.93
2018-03-16T05:59:42.174Z,35.00
2018-03-16T06:02:09.636Z,31.33
2018-03-16T06:04:37.911Z,31.25
2018-03-16T06:07:05.354Z,30.73
2018-03-16T06:09:32.788Z,33.10
2018-03-16T06:12:00.315Z,32.10
2018-03-16T06:14:30.553Z,31.97
2018-03-16T06:16:57.999Z,30.83
2018-03-16T06:19:25.439Z,33.50
2018-03-16T06:21:52.919Z,29.00
2018-03-16T06:24:20.351Z,29.47
2018-03-16T06:26:47.786Z,28.93
2018-03-16T06:29:15.647Z,27.97
2018-03-16T06:31:43.082Z,25.70
2018-03-16T06:34:10.515Z,28.77
2018-03-16T06:36:37.974Z,27.70
2018-03-16T06:39:06.085Z,31.80
2018-03-16T06:41:33.528Z,29.80
2018-03-16T06:44:01.012Z,28.48
2018-03-16T06:46:28.456Z,27.37
2018-03-16T06:48:55.914Z,26.90
2018-03-16T06:51:23.372Z,28.40
2018-03-16T06:53:50.820Z,25.60
2018-03-16T06:56:18.275Z,28.97
2018-03-16T06:58:45.758Z,27.98
2018-03-16T07:01:13.195Z,26.63
2018-03-16T07:03:40.641Z,27.23
2018-03-16T07:06:08.095Z,25.27
2018-03-16T07:08:35.629Z,26.90
2018-03-16T07:11:03.149Z,24.80
2018-03-16T07:13:30.633Z,26.25
2018-03-16T07:15:58.071Z,25.10
2018-03-16T07:18:25.503Z,27.17
2018-03-16T07:20:52.978Z,24.98
2018-03-16T07:23:20.406Z,26.30
2018-03-16T07:25:47.862Z,23.90
2018-03-16T07:28:15.303Z,25.73
2018-03-16T07:30:42.735Z,25.80
2018-03-16T07:33:10.164Z,24.93
2018-03-16T07:35:37.616Z,24.20
2018-03-16T07:38:05.142Z,25.43
2018-03-16T07:40:32.633Z,24.23
2018-03-16T07:43:00.087Z,25.57
2018-03-16T07:45:33.186Z,23.17
2018-03-16T07:48:00.740Z,24.50
2018-03-16T07:50:28.169Z,24.67
2018-03-16T07:52:55.611Z,24.83
2018-03-16T07:55:23.064Z,24.53
2018-03-16T07:57:50.506Z,22.90
2018-03-16T08:00:17.938Z,23.90
2018-03-16T08:02:45.383Z,23.90
2018-03-16T08:05:12.823Z,24.90
2018-03-16T08:07:40.265Z,23.87
2018-03-16T08:10:07.712Z,22.87
2018-03-16T08:12:35.167Z,21.37
2018-03-16T08:15:02.625Z,23.17
2018-03-16T08:17:30.069Z,23.30
2018-03-16T08:19:57.530Z,23.27
2018-03-16T08:22:24.962Z,24.80
2018-03-16T08:24:52.490Z,23.33
2018-03-16T08:27:19.939Z,22.57
2018-03-16T08:29:47.372Z,23.25
2018-03-16T08:32:14.821Z,23.37
2018-03-16T08:34:42.256Z,24.20
2018-03-16T08:37:09.679Z,24.50
2018-03-16T08:39:37.202Z,23.77
2018-03-16T08:42:04.662Z,23.63
2018-03-16T08:44:32.102Z,24.10
2018-03-16T08:46:59.550Z,23.63
2018-03-16T08:49:27.062Z,24.80
2018-03-16T08:51:54.490Z,23.67
2018-03-16T08:54:21.934Z,23.48
2018-03-16T08:56:49.793Z,23.65
2018-03-16T08:59:17.258Z,22.20
2018-03-16T09:01:44.700Z,24.27
2018-03-16T09:04:12.164Z,23.57
2018-03-16T09:06:39.595Z,24.07
2018-03-16T09:09:07.037Z,23.70
2018-03-16T09:11:34.483Z,22.80
2018-03-16T09:14:01.959Z,22.37
2018-03-16T09:16:29.510Z,23.60
2018-03-16T09:18:56.963Z,22.57
2018-03-16T09:21:24.399Z,23.03
2018-03-16T09:23:51.845Z,23.40
2018-03-16T09:26:19.288Z,22.80
2018-03-16T09:28:47.046Z,22.17
2018-03-16T09:31:14.495Z,23.10
2018-03-16T09:33:41.931Z,22.60
2018-03-16T09:36:09.363Z,21.17
2018-03-16T09:38:36.811Z,22.93
2018-03-16T09:41:04.251Z,23.63
2018-03-16T09:43:31.795Z,21.05
2018-03-16T09:45:59.320Z,21.87
2018-03-16T09:48:26.762Z,21.40
2018-03-16T09:50:54.221Z,20.77
2018-03-16T09:53:29.049Z,21.67
2018-03-16T09:55:56.502Z,21.30
2018-03-16T09:58:23.948Z,21.00
2018-03-16T10:00:51.414Z,20.87
2018-03-16T10:03:18.851Z,18.60
2018-03-16T10:05:46.304Z,19.00
2018-03-16T10:08:14.086Z,20.37
2018-03-16T10:10:41.521Z,22.30
2018-03-16T10:13:09.014Z,18.37
2018-03-16T10:15:36.463Z,19.97
2018-03-16T10:18:03.915Z,18.27
2018-03-16T10:20:31.453Z,17.40
2018-03-16T10:22:58.909Z,16.00
2018-03-16T10:25:26.407Z,16.50
2018-03-16T10:27:53.831Z,17.23
2018-03-16T10:30:21.328Z,17.20
2018-03-16T10:32:48.759Z,15.60
2018-03-16T10:35:16.229Z,15.90
2018-03-16T10:37:43.763Z,15.50
2018-03-16T10:40:11.195Z,18.00
2018-03-16T10:42:38.674Z,14.63
2018-03-16T10:45:06.134Z,14.40
2018-03-16T10:47:33.614Z,16.33
2018-03-16T10:50:01.060Z,15.70
2018-03-16T10:52:28.566Z,15.43
2018-03-16T10:54:56.004Z,14.87
2018-03-16T10:57:23.698Z,14.90
2018-03-16T10:59:51.220Z,16.00
2018-03-16T11:02:20.598Z,15.70
2018-03-16T11:04:53.628Z,16.30
2018-03-16T11:07:21.062Z,15.70
2018-03-16T11:09:48.528Z,15.90
2018-03-16T11:12:16.801Z,43.15
2018-03-16T11:14:44.879Z,30.23
2018-03-16T11:17:12.345Z,14.40
2018-03-16T11:19:39.807Z,14.20
2018-03-16T11:22:07.249Z,14.70
2018-03-16T11:24:34.693Z,13.13
2018-03-16T11:27:02.146Z,13.57
2018-03-16T11:29:29.583Z,12.77
2018-03-16T11:31:57.018Z,14.00
2018-03-16T11:34:24.471Z,13.80
2018-03-16T11:36:51.916Z,13.80
2018-03-16T11:39:19.441Z,14.65
2018-03-16T11:41:46.878Z,13.47
2018-03-16T11:44:14.348Z,11.43
2018-03-16T11:46:41.783Z,9.50
2018-03-16T11:49:09.259Z,9.77
2018-03-16T11:51:36.792Z,9.27
2018-03-16T11:54:04.270Z,9.90
2018-03-16T11:56:31.738Z,8.75
2018-03-16T11:58:59.270Z,9.47
2018-03-16T12:01:26.712Z,9.25
2018-03-16T12:03:54.214Z,8.43
2018-03-16T12:06:21.668Z,8.67
2018-03-16T12:08:49.134Z,8.30
2018-03-16T12:11:16.583Z,8.95
2018-03-16T12:13:44.025Z,8.10
2018-03-16T12:16:11.503Z,8.40
2018-03-16T12:18:38.942Z,8.43
2018-03-16T12:21:06.379Z,8.43
2018-03-16T12:23:33.807Z,7.90
2018-03-16T12:26:01.283Z,6.40
2018-03-16T12:28:49.243Z,5.50
2018-03-16T12:30:56.194Z,3.50
2018-03-16T12:33:23.627Z,3.47
2018-03-16T12:35:51.053Z,2.60
2018-03-16T12:38:18.524Z,1.80
2018-03-16T12:40:45.978Z,2.47
2018-03-16T12:43:13.410Z,2.40
2018-03-16T12:45:40.850Z,2.70
2018-03-16T12:48:08.300Z,2.50
2018-03-16T12:50:38.072Z,2.17
2018-03-16T12:53:05.736Z,1.70
2018-03-16T12:55:33.184Z,1.80
2018-03-16T12:58:00.622Z,1.85
2018-03-16T13:00:28.052Z,1.90
2018-03-16T13:02:55.496Z,1.70
2018-03-16T13:05:22.970Z,1.97
2018-03-16T13:07:50.476Z,2.20
2018-03-16T13:10:17.874Z,2.97
2018-03-16T13:12:45.368Z,3.03
2018-03-16T13:15:12.798Z,3.50
2018-03-16T13:17:40.246Z,3.97
2018-03-16T13:20:07.689Z,4.67
2018-03-16T13:22:35.143Z,4.07
2018-03-16T13:25:02.582Z,4.43
2018-03-16T13:27:30.031Z,3.57
2018-03-16T13:29:57.461Z,4.07
2018-03-16T13:32:25.698Z,3.90
2018-03-16T13:34:53.135Z,3.83
2018-03-16T13:37:20.563Z,3.97
2018-03-16T13:39:48.031Z,3.70
2018-03-16T13:42:15.460Z,4.50
2018-03-16T13:44:43.188Z,3.73
2018-03-16T13:47:10.687Z,4.65
2018-03-16T13:49:38.154Z,3.70
2018-03-16T13:52:05.661Z,4.30
2018-03-16T13:54:33.108Z,3.85
2018-03-16T13:57:00.534Z,4.33
